Time;durP1;ratioP1;P1;durP2;ratioP2;P2;SDS_P1;SDS_P2;PMS_P1;PMS_P2;Temp;Humidity;BMP_temperature;BMP_pressure;BME280_temperature;BME280_humidity;BME280_pressure;Samples;Min_cycle;Max_cycle;Signal;HPM_P1;HPM_P2
2022/10/23 00:01:15;;;;;;;;;;;;;;;15.88;63.13;100300.41;4327601;33;19983;-86
2022/10/23 00:03:42;;;;;;;;;;;;;;;15.85;63.03;100310.84;4334638;33;20138;-85
2022/10/23 00:06:09;;;;;;;;;;;;;;;15.80;62.87;100306.50;4326658;33;19988;-83
2022/10/23 00:08:36;;;;;;;;;;;;;;;15.88;62.09;100305.66;4325084;33;19984;-85
2022/10/23 00:11:10;;;;;;;;;;;;;;;15.76;62.25;100302.16;4312897;33;19996;-87
2022/10/23 00:13:37;;;;;;;;;;;;;;;15.77;61.75;100309.09;3587494;33;10008664;-86
2022/10/23 00:16:04;;;;;;;;;;;;;;;15.72;61.66;100321.25;4335084;33;20000;-86
2022/10/23 00:18:31;;;;;;;;;;;;;;;15.77;61.48;100323.91;4326423;33;20334;-85
2022/10/23 00:20:58;;;;;;;;;;;;;;;15.65;61.67;100329.06;4334164;33;20672;-85
2022/10/23 00:23:25;;;;;;;;;;;;;;;15.60;61.79;100331.63;4326214;33;19989;-86
2022/10/23 00:25:52;;;;;;;;;;;;;;;15.69;61.07;100326.47;4330126;33;19979;-86
2022/10/23 00:28:19;;;;;;;;;;;;;;;15.56;61.09;100329.88;4328395;33;20014;-85
2022/10/23 00:30:46;;;;;;;;;;;;;;;15.51;61.23;100327.28;4327632;33;19968;-87
2022/10/23 00:33:13;;;;;;;;;;;;;;;15.56;60.88;100330.75;4333283;32;20004;-86
2022/10/23 00:35:40;;;;;;;;;;;;;;;15.56;60.85;100329.88;4326305;33;19987;-86
2022/10/23 00:38:08;;;;;;;;;;;;;;;15.53;60.62;100340.31;4325039;33;19999;-86
2022/10/23 00:40:35;;;;;;;;;;;;;;;15.43;60.80;100341.13;4333008;33;19979;-86
2022/10/23 00:43:03;;;;;;;;;;;;;;;15.43;60.59;100343.75;4326443;33;20018;-86
2022/10/23 00:45:32;;;;;;;;;;;;;;;15.46;60.55;100351.59;4324969;33;19995;-86
2022/10/23 00:47:59;;;;;;;;;;;;;;;15.46;60.52;100354.19;4326102;33;20034;-86
2022/10/23 00:50:27;;;;;;;;;;;;;;;15.33;61.23;100354.12;4325208;33;20023;-86
2022/10/23 00:52:56;;;;;;;;;;;;;;;15.30;61.85;100364.56;4324672;33;20011;-85
2022/10/23 00:55:23;;;;;;;;;;;;;;;15.41;61.75;100366.34;4334381;33;20955;-86
2022/10/23 00:57:50;;;;;;;;;;;;;;;15.42;61.88;100368.09;4326193;33;19984;-86
2022/10/23 01:00:20;;;;;;;;;;;;;;;15.38;61.93;100367.22;4326206;33;19994;-87
2022/10/23 01:02:47;;;;;;;;;;;;;;;15.41;62.07;100372.44;4324842;33;19992;-87
2022/10/23 01:05:14;;;;;;;;;;;;;;;15.37;62.32;100382.84;4312860;33;19995;-87
2022/10/23 01:07:44;;;;;;;;;;;;;;;15.45;62.46;100383.78;4337392;33;20047;-86
2022/10/23 01:10:15;;;;;;;;;;;;;;;15.31;62.91;100383.69;4334599;33;19991;-86
2022/10/23 01:12:49;;;;;;;;;;;;;;;15.41;62.46;100387.22;4328764;33;20645;-84
2022/10/23 01:15:26;;;;;;;;;;;;;;;15.30;62.98;100384.56;4328898;33;20007;-86
2022/10/23 01:18:03;;;;;;;;;;;;;;;15.24;63.21;100388.00;4334392;33;20047;-85
2022/10/23 01:20:35;;;;;;;;;;;;;;;15.05;63.79;100388.75;4325995;33;19984;-85
2022/10/23 01:23:03;;;;;;;;;;;;;;;15.05;63.83;100391.34;4331367;33;20013;-86
2022/10/23 01:25:42;;;;;;;;;;;;;;;15.11;63.46;100394.00;4331343;33;19992;-84
2022/10/23 01:28:09;;;;;;;;;;;;;;;15.13;63.29;100387.06;4329763;33;19991;-86
2022/10/23 01:30:36;;;;;;;;;;;;;;;15.01;63.71;100392.19;4328743;33;19999;-85
2022/10/23 01:33:25;;;;;;;;;;;;;;;15.01;63.41;100386.97;4329728;33;20004;-86
2022/10/23 01:35:52;;;;;;;;;;;;;;;14.39;65.37;100386.47;4326364;33;19988;-86
2022/10/23 01:38:39;;;;;;;;;;;;;;;14.77;63.97;100378.12;4327467;33;20046;-87
2022/10/23 01:41:47;;;;;;;;;;;;;;;14.75;64.04;100379.84;4327248;33;20325;-85
2022/10/23 01:44:17;;;;;;;;;;;;;;;15.04;62.95;100381.78;4293353;33;19995;-86
2022/10/23 01:46:45;;;;;;;;;;;;;;;15.23;62.02;100388.88;4294488;33;20557;-86
2022/10/23 01:49:12;;;;;;;;;;;;;;;15.06;62.14;100382.66;4300669;33;20053;-86
2022/10/23 01:51:40;;;;;;;;;;;;;;;15.06;62.02;100383.56;4325693;33;19991;-85
2022/10/23 01:54:08;;;;;;;;;;;;;;;14.73;62.14;100380.69;4324815;33;20060;-86
2022/10/23 01:56:36;;;;;;;;;;;;;;;14.74;62.29;100385.94;4312419;33;20337;-86
2022/10/23 01:59:11;;;;;;;;;;;;;;;13.81;65.55;100380.63;4311858;33;20010;-86
2022/10/23 02:01:40;;;;;;;;;;;;;;;14.27;64.29;100386.34;4299897;33;20290;-86
2022/10/23 02:04:10;;;;;;;;;;;;;;;14.57;62.98;100379.69;4289165;33;19996;-85
2022/10/23 02:06:38;;;;;;;;;;;;;;;14.70;62.60;100376.31;4281760;33;19997;-86
2022/10/23 02:09:05;;;;;;;;;;;;;;;14.76;62.38;100381.59;4280511;33;19993;-85
2022/10/23 02:11:34;;;;;;;;;;;;;;;14.87;61.66;100374.72;4280799;33;19999;-86
2022/10/23 02:14:03;;;;;;;;;;;;;;;14.95;61.14;100381.72;4289023;33;20049;-86
2022/10/23 02:16:29;;;;;;;;;;;;;;;14.87;60.98;100377.34;4280858;33;19999;-85
2022/10/23 02:19:01;;;;;;;;;;;;;;;14.75;61.01;100376.37;4281502;33;19984;-85
2022/10/23 02:21:30;;;;;;;;;;;;;;;14.43;61.83;100383.03;4285916;33;20028;-86
2022/10/23 02:24:11;;;;;;;;;;;;;;;14.73;61.05;100380.69;4281910;33;20032;-83
2022/10/23 02:26:39;;;;;;;;;;;;;;;14.64;61.30;100384.09;4289927;33;20072;-86
2022/10/23 02:29:11;;;;;;;;;;;;;;;14.72;61.03;100374.62;4280201;33;19985;-86
2022/10/23 02:31:40;;;;;;;;;;;;;;;14.65;61.21;100372.81;4280429;33;20354;-86
2022/10/23 02:34:07;;;;;;;;;;;;;;;14.46;61.62;100376.97;4287795;33;20003;-86
2022/10/23 02:36:34;;;;;;;;;;;;;;;14.03;63.64;100381.75;4281980;33;20005;-86
2022/10/23 02:39:01;;;;;;;;;;;;;;;14.34;62.65;100388.12;4288265;33;21185;-85
2022/10/23 02:41:31;;;;;;;;;;;;;;;14.46;61.96;100394.34;4283238;33;19977;-85
2022/10/23 02:44:01;;;;;;;;;;;;;;;14.57;61.39;100397.94;4280475;33;19992;-86
2022/10/23 02:46:30;;;;;;;;;;;;;;;14.52;61.56;100407.47;4289553;33;20004;-85
2022/10/23 02:49:04;;;;;;;;;;;;;;;14.57;61.06;100410.97;4281949;33;19988;-86
2022/10/23 02:51:38;;;;;;;;;;;;;;;14.52;61.18;100417.88;4296971;33;19973;-85
2022/10/23 02:54:17;;;;;;;;;;;;;;;14.43;61.13;100409.06;4298521;33;19993;-85
2022/10/23 02:56:49;;;;;;;;;;;;;;;14.20;62.63;100410.59;4305781;33;20023;-86
2022/10/23 02:59:23;;;;;;;;;;;;;;;14.54;61.70;100411.78;4311948;33;20003;-86
2022/10/23 03:02:01;;;;;;;;;;;;;;;14.63;61.31;100418.81;4306349;33;20342;-84
2022/10/23 03:04:29;;;;;;;;;;;;;;;14.37;61.41;100419.44;4299475;33;19985;-85
2022/10/23 03:06:56;;;;;;;;;;;;;;;14.55;60.62;100423.09;4297374;33;19996;-86
2022/10/23 03:09:24;;;;;;;;;;;;;;;14.54;60.77;100426.56;4297962;33;20044;-86
2022/10/23 03:11:51;;;;;;;;;;;;;;;14.64;59.89;100423.16;4305117;33;19992;-86
2022/10/23 03:14:18;;;;;;;;;;;;;;;14.66;59.45;100426.69;4305987;33;19999;-83
2022/10/23 03:16:45;;;;;;;;;;;;;;;14.66;59.05;100431.88;4297864;33;19996;-85
2022/10/23 03:19:12;;;;;;;;;;;;;;;14.40;59.72;100427.28;4306157;33;19984;-86
2022/10/23 03:21:39;;;;;;;;;;;;;;;14.55;59.25;100428.28;4297488;33;19984;-85
2022/10/23 03:24:06;;;;;;;;;;;;;;;14.48;59.24;100447.31;4297566;33;20795;-85
2022/10/23 03:26:33;;;;;;;;;;;;;;;14.37;59.49;100440.25;4305232;33;20002;-84
2022/10/23 03:29:00;;;;;;;;;;;;;;;14.39;59.00;100443.78;4304805;33;20068;-85
2022/10/23 03:31:28;;;;;;;;;;;;;;;14.24;58.98;100448.81;4296397;33;20072;-86
2022/10/23 03:33:55;;;;;;;;;;;;;;;14.23;58.75;100447.06;4305227;33;20004;-85
2022/10/23 03:36:21;;;;;;;;;;;;;;;14.31;58.45;100449.75;4297175;33;20007;-86
2022/10/23 03:38:48;;;;;;;;;;;;;;;14.37;58.02;100449.81;4295940;33;19985;-85
2022/10/23 03:41:16;;;;;;;;;;;;;;;14.19;58.57;100440.06;4297089;33;20044;-86
2022/10/23 03:43:43;;;;;;;;;;;;;;;14.27;58.59;100437.56;4305529;33;19996;-85
2022/10/23 03:46:11;;;;;;;;;;;;;;;14.07;58.62;100445.12;4297934;33;19999;-85
2022/10/23 03:48:40;;;;;;;;;;;;;;;14.22;58.21;100442.69;4297422;33;20056;-86
2022/10/23 03:51:07;;;;;;;;;;;;;;;14.32;57.75;100441.06;4297327;33;19980;-85
2022/10/23 03:53:34;;;;;;;;;;;;;;;14.28;57.73;100450.56;4297241;33;20045;-86
2022/10/23 03:56:03;;;;;;;;;;;;;;;14.27;57.76;100443.63;4297530;33;20042;-85
2022/10/23 03:58:32;;;;;;;;;;;;;;;14.22;57.61;100450.50;4297502;33;20000;-83
2022/10/23 04:00:58;;;;;;;;;;;;;;;13.99;58.29;100444.19;4299016;33;20027;-86
2022/10/23 04:03:25;;;;;;;;;;;;;;;13.90;58.46;100448.41;4303615;33;20028;-86
2022/10/23 04:05:52;;;;;;;;;;;;;;;13.83;58.56;100453.53;4296036;33;19984;-86
2022/10/23 04:08:20;;;;;;;;;;;;;;;14.00;57.79;100448.50;4297430;33;20357;-85
2022/10/23 04:10:47;;;;;;;;;;;;;;;13.95;58.40;100444.13;4301398;33;20385;-86
2022/10/23 04:13:14;;;;;;;;;;;;;;;14.02;57.52;100446.81;4301355;33;20028;-86
2022/10/23 04:15:46;;;;;;;;;;;;;;;13.76;58.14;100439.56;4297869;33;20000;-86
2022/10/23 04:18:15;;;;;;;;;;;;;;;13.70;58.14;100439.47;4297627;33;20007;-86
2022/10/23 04:20:42;;;;;;;;;;;;;;;13.72;58.02;100438.66;4297515;33;19988;-83
2022/10/23 04:23:09;;;;;;;;;;;;;;;13.89;57.76;100436.25;4296481;33;20048;-86
2022/10/23 04:25:38;;;;;;;;;;;;;;;13.80;58.10;100433.53;4303485;33;20032;-85
2022/10/23 04:28:04;;;;;;;;;;;;;;;13.86;57.70;100441.41;4301571;33;20393;-86
2022/10/23 04:30:31;;;;;;;;;;;;;;;13.82;57.71;100436.19;4304996;33;19999;-85
2022/10/23 04:32:58;;;;;;;;;;;;;;;13.76;57.77;100434.38;4298945;33;20007;-84
2022/10/23 04:35:25;;;;;;;;;;;;;;;13.70;57.96;100434.28;4303084;33;20000;-85
2022/10/23 04:37:52;;;;;;;;;;;;;;;13.39;58.82;100439.06;4283568;33;20011;-86
2022/10/23 04:40:21;;;;;;;;;;;;;;;13.25;59.58;100443.19;4295473;33;19976;-86
2022/10/23 04:42:51;;;;;;;;;;;;;;;13.25;59.84;100444.06;4296734;33;20004;-86
2022/10/23 04:45:18;;;;;;;;;;;;;;;13.45;59.46;100439.16;4304082;33;20833;-85
2022/10/23 04:47:45;;;;;;;;;;;;;;;13.51;59.38;100447.91;4297508;33;19989;-85
2022/10/23 04:50:12;;;;;;;;;;;;;;;13.47;59.26;100442.66;4296630;33;20441;-85
2022/10/23 04:53:02;;;;;;;;;;;;;;;13.48;58.92;100449.59;4298870;33;20070;-85
2022/10/23 04:55:30;;;;;;;;;;;;;;;13.34;59.25;100451.13;4302473;33;20064;-84
2022/10/23 04:58:02;;;;;;;;;;;;;;;13.47;58.89;100446.97;4301457;33;20000;-85
2022/10/23 05:00:28;;;;;;;;;;;;;;;13.48;58.94;100459.12;4299443;33;20032;-84
2022/10/23 05:02:56;;;;;;;;;;;;;;;13.52;58.68;100454.84;4302579;33;20012;-85
2022/10/23 05:05:27;;;;;;;;;;;;;;;13.57;58.07;100453.19;4309047;33;20286;-85
2022/10/23 05:07:55;;;;;;;;;;;;;;;13.49;58.41;100459.12;4316817;33;20361;-85
2022/10/23 05:10:22;;;;;;;;;;;;;;;13.41;58.44;100455.56;4298797;33;20516;-84
2022/10/23 05:12:49;;;;;;;;;;;;;;;13.48;58.22;100459.12;4296694;33;20412;-85
2022/10/23 05:15:15;;;;;;;;;;;;;;;13.36;58.13;100462.41;4296136;33;20604;-85
2022/10/23 05:17:43;;;;;;;;;;;;;;;13.43;57.65;100451.28;4304919;33;20325;-84
2022/10/23 05:20:12;;;;;;;;;;;;;;;13.42;57.55;100454.69;4306506;33;20016;-84
2022/10/23 05:22:39;;;;;;;;;;;;;;;13.36;57.75;100458.94;4307297;33;19993;-84
2022/10/23 05:25:06;;;;;;;;;;;;;;;13.37;57.87;100463.28;4299590;33;19992;-84
2022/10/23 05:27:33;;;;;;;;;;;;;;;13.38;57.84;100467.66;4302972;33;19976;-82
2022/10/23 05:30:01;;;;;;;;;;;;;;;13.26;58.38;100468.34;4301735;33;19984;-82
2022/10/23 05:32:28;;;;;;;;;;;;;;;13.36;58.49;100467.63;4299270;33;20397;-83
2022/10/23 05:34:56;;;;;;;;;;;;;;;13.30;59.22;100467.53;4307516;33;19988;-83
2022/10/23 05:37:23;;;;;;;;;;;;;;;13.34;59.16;100465.88;4313551;33;20476;-83
2022/10/23 05:39:54;;;;;;;;;;;;;;;13.36;58.92;100464.16;4302010;33;19993;-81
2022/10/23 05:42:21;;;;;;;;;;;;;;;13.30;59.31;100464.91;4309413;33;19984;-80
2022/10/23 05:44:49;;;;;;;;;;;;;;;13.33;59.41;100470.16;4310089;33;19988;-80
2022/10/23 05:47:16;;;;;;;;;;;;;;;13.27;59.04;100472.66;4308463;33;19992;-81
2022/10/23 05:49:43;;;;;;;;;;;;;;;13.21;59.57;100469.97;4302537;33;20026;-83
2022/10/23 05:52:11;;;;;;;;;;;;;;;13.39;59.58;100475.47;4295399;33;19989;-81
2022/10/23 05:54:38;;;;;;;;;;;;;;;13.45;59.33;100475.56;4306468;33;20031;-82
2022/10/23 05:57:09;;;;;;;;;;;;;;;13.48;59.66;100480.81;4319193;33;20035;-84
2022/10/23 05:59:39;;;;;;;;;;;;;;;13.49;59.93;100476.47;4309996;33;19987;-85
2022/10/23 06:02:07;;;;;;;;;;;;;;;13.58;59.72;100480.94;4310588;33;20003;-85
2022/10/23 06:04:34;;;;;;;;;;;;;;;13.49;60.28;100476.47;4310782;33;19996;-82
2022/10/23 06:07:03;;;;;;;;;;;;;;;13.54;60.38;100485.22;4310416;33;20422;-84
2022/10/23 06:09:30;;;;;;;;;;;;;;;13.58;60.27;100491.34;4295239;33;19988;-83
2022/10/23 06:11:57;;;;;;;;;;;;;;;13.01;63.66;100493.88;4309549;33;20048;-83
2022/10/23 06:14:24;;;;;;;;;;;;;;;13.00;65.05;100492.16;4310148;33;20007;-81
2022/10/23 06:16:50;;;;;;;;;;;;;;;12.61;67.24;100496.66;4309343;33;20642;-81
2022/10/23 06:19:18;;;;;;;;;;;;;;;12.99;66.27;100486.94;4308601;33;19984;-81
2022/10/23 06:21:45;;;;;;;;;;;;;;;13.24;65.55;100496.00;4306221;33;20055;-84
2022/10/23 06:24:12;;;;;;;;;;;;;;;13.64;63.98;100488.81;4310485;33;20031;-82
2022/10/23 06:26:40;;;;;;;;;;;;;;;13.86;63.02;100488.25;4306402;33;19988;-83
2022/10/23 06:29:07;;;;;;;;;;;;;;;13.89;62.87;100498.72;4305031;33;20351;-83
2022/10/23 06:31:34;;;;;;;;;;;;;;;14.02;62.54;100493.69;4303987;33;19996;-83
2022/10/23 06:34:01;;;;;;;;;;;;;;;14.00;62.96;100511.00;4306109;33;20048;-82
2022/10/23 06:36:28;;;;;;;;;;;;;;;13.88;63.69;100528.22;4299524;33;19984;-85
2022/10/23 06:38:56;;;;;;;;;;;;;;;13.75;65.21;100521.06;4310920;33;20007;-82
2022/10/23 06:41:24;;;;;;;;;;;;;;;13.62;66.79;100530.41;4304665;33;20051;-81
2022/10/23 06:43:52;;;;;;;;;;;;;;;14.17;64.61;100535.53;4309965;33;20002;-81
2022/10/23 06:46:19;;;;;;;;;;;;;;;14.24;64.59;100539.94;4311515;33;20555;-81
2022/10/23 06:48:47;;;;;;;;;;;;;;;14.36;64.13;100531.41;4310691;33;20381;-81
2022/10/23 06:51:16;;;;;;;;;;;;;;;14.45;64.11;100531.50;4312258;33;19984;-81
2022/10/23 06:53:43;;;;;;;;;;;;;;;14.65;63.73;100530.03;4307715;33;19988;-81
2022/10/23 06:56:11;;;;;;;;;;;;;;;14.78;63.82;100536.25;4308483;33;20058;-81
2022/10/23 06:58:38;;;;;;;;;;;;;;;15.13;62.78;100527.03;4297918;33;20471;-81
2022/10/23 07:01:06;;;;;;;;;;;;;;;15.38;62.51;100538.50;4301218;33;19999;-81
2022/10/23 07:03:34;;;;;;;;;;;;;;;15.58;62.04;100531.69;4310573;33;20326;-81
2022/10/23 07:06:01;;;;;;;;;;;;;;;15.75;61.44;100524.00;4310689;33;20471;-80
2022/10/23 07:08:28;;;;;;;;;;;;;;;15.88;61.24;100541.47;4311765;33;20019;-81
2022/10/23 07:10:56;;;;;;;;;;;;;;;15.94;61.18;100531.06;4311907;33;20008;-81
2022/10/23 07:13:23;;;;;;;;;;;;;;;16.12;60.86;100530.31;4310549;33;21083;-82
2022/10/23 07:15:50;;;;;;;;;;;;;;;16.20;60.92;100528.56;4307086;33;20504;-82
2022/10/23 07:18:20;;;;;;;;;;;;;;;16.26;61.16;100528.59;4287476;33;19988;-81
2022/10/23 07:20:48;;;;;;;;;;;;;;;16.26;61.38;100533.84;4311935;33;19992;-81
2022/10/23 07:23:15;;;;;;;;;;;;;;;16.22;61.88;100541.66;4308984;33;20019;-80
2022/10/23 07:25:43;;;;;;;;;;;;;;;16.34;61.76;100540.84;4313623;33;20010;-81
2022/10/23 07:28:17;;;;;;;;;;;;;;;16.40;62.01;100540.84;4325003;33;20005;-81
2022/10/23 07:30:55;;;;;;;;;;;;;;;16.43;62.39;100546.97;4324014;33;19987;-81
2022/10/23 07:33:27;;;;;;;;;;;;;;;16.62;61.96;100540.03;4318532;33;19989;-81
2022/10/23 07:35:55;;;;;;;;;;;;;;;16.77;61.70;100530.53;4315754;33;19980;-81
2022/10/23 07:38:22;;;;;;;;;;;;;;;16.90;61.38;100527.06;4322247;33;20039;-81
2022/10/23 07:40:49;;;;;;;;;;;;;;;17.03;61.30;100528.81;4311100;33;20446;-82
2022/10/23 07:43:17;;;;;;;;;;;;;;;17.12;61.46;100534.06;4309377;33;20060;-82
2022/10/23 07:45:47;;;;;;;;;;;;;;;17.47;60.73;100520.09;4315234;33;19993;-82
2022/10/23 07:48:15;;;;;;;;;;;;;;;17.72;60.48;100525.28;4309237;33;20478;-82
2022/10/23 07:50:44;;;;;;;;;;;;;;;17.96;60.22;100532.22;4301100;33;20425;-80
2022/10/23 07:53:14;;;;;;;;;;;;;;;18.30;57.67;100530.38;4278575;33;20089;-82
2022/10/23 07:55:41;;;;;;;;;;;;;;;18.33;57.76;100530.34;4295646;33;20338;-81
2022/10/23 07:58:08;;;;;;;;;;;;;;;18.49;57.54;100526.78;4295214;33;20027;-81
2022/10/23 08:00:37;;;;;;;;;;;;;;;18.62;57.55;100519.72;4298643;33;20067;-82
2022/10/23 08:03:05;;;;;;;;;;;;;;;18.83;57.97;100521.38;4301688;33;20304;-81
2022/10/23 08:05:32;;;;;;;;;;;;;;;19.09;57.70;100512.44;4297066;33;20011;-82
2022/10/23 08:07:59;;;;;;;;;;;;;;;19.17;57.70;100511.47;4297341;33;20020;-81
2022/10/23 08:10:28;;;;;;;;;;;;;;;19.35;56.69;100507.81;4303561;33;20024;-81
2022/10/23 08:12:57;;;;;;;;;;;;;;;19.45;55.58;100501.59;4283555;33;20044;-82
2022/10/23 08:15:25;;;;;;;;;;;;;;;19.89;54.56;100508.19;4306595;33;19989;-82
2022/10/23 08:17:53;;;;;;;;;;;;;;;19.42;58.08;100512.13;4296912;33;20339;-82
2022/10/23 08:20:20;;;;;;;;;;;;;;;19.55;57.67;100506.75;4301509;33;20318;-82
2022/10/23 08:22:46;;;;;;;;;;;;;;;19.41;58.62;100510.41;4303201;33;20319;-82
2022/10/23 08:25:15;;;;;;;;;;;;;;;19.94;55.17;100505.50;4298777;33;19997;-81
2022/10/23 08:27:41;;;;;;;;;;;;;;;19.47;57.72;100510.34;4303168;33;20024;-81
2022/10/23 08:30:09;;;;;;;;;;;;;;;19.75;58.27;100504.84;4302565;33;20003;-83
2022/10/23 08:32:36;;;;;;;;;;;;;;;20.21;54.21;100513.06;4305725;33;20089;-82
2022/10/23 08:35:03;;;;;;;;;;;;;;;20.20;54.82;100513.09;4303159;33;19988;-81
2022/10/23 08:37:30;;;;;;;;;;;;;;;20.43;54.20;100521.53;4296600;33;19981;-82
2022/10/23 08:39:57;;;;;;;;;;;;;;;20.16;53.73;100516.62;4297118;33;20374;-83
2022/10/23 08:42:25;;;;;;;;;;;;;;;20.11;55.02;100508.81;4291311;33;20026;-83
2022/10/23 08:45:01;;;;;;;;;;;;;;;20.31;54.69;100511.16;4295597;33;19988;-83
2022/10/23 08:47:33;;;;;;;;;;;;;;;20.46;53.68;100511.87;4298381;33;19968;-83
2022/10/23 08:50:01;;;;;;;;;;;;;;;20.70;53.53;100503.62;4303615;33;20010;-83
2022/10/23 08:52:41;;;;;;;;;;;;;;;20.56;54.51;100500.34;4301851;33;20006;-83
2022/10/23 08:55:30;;;;;;;;;;;;;;;20.51;56.40;100496.88;4299681;33;20029;-84
2022/10/23 08:58:03;;;;;;;;;;;;;;;20.73;55.47;100498.34;4304109;33;19976;-82
2022/10/23 09:00:29;;;;;;;;;;;;;;;20.65;56.25;100489.72;4310348;33;19992;-82
2022/10/23 09:02:59;;;;;;;;;;;;;;;20.68;54.13;100494.94;4305396;33;20006;-82
2022/10/23 09:05:26;;;;;;;;;;;;;;;20.86;56.54;100493.75;4302977;33;19985;-82
2022/10/23 09:07:56;;;;;;;;;;;;;;;21.40;52.89;100500.78;4305141;33;19987;-82
2022/10/23 09:10:28;;;;;;;;;;;;;;;20.81;56.52;100493.84;4311408;33;19984;-82
2022/10/23 09:13:14;;;;;;;;;;;;;;;21.37;53.67;100492.03;4311271;33;20002;-82
2022/10/23 09:15:41;;;;;;;;;;;;;;;21.21;55.04;100506.34;4311363;33;20027;-81
2022/10/23 09:18:13;;;;;;;;;;;;;;;21.18;55.49;100501.13;4309750;33;19992;-82
2022/10/23 09:20:40;;;;;;;;;;;;;;;21.20;55.07;100501.97;4310353;33;20002;-82
2022/10/23 09:23:11;;;;;;;;;;;;;;;21.00;55.49;100504.94;4304232;33;20006;-82
2022/10/23 09:25:39;;;;;;;;;;;;;;;21.36;55.73;100513.16;4298958;33;19992;-83
2022/10/23 09:28:10;;;;;;;;;;;;;;;21.33;55.04;100524.56;4299618;33;19999;-82
2022/10/23 09:30:37;;;;;;;;;;;;;;;21.57;53.75;100519.81;4295258;33;20011;-82
2022/10/23 09:33:21;;;;;;;;;;;;;;;21.63;53.50;100519.66;4298384;33;20346;-82
2022/10/23 09:35:57;;;;;;;;;;;;;;;21.16;53.80;100523.12;4303195;33;19993;-82
2022/10/23 09:38:25;;;;;;;;;;;;;;;21.18;54.41;100527.44;4296501;33;19992;-82
2022/10/23 09:40:52;;;;;;;;;;;;;;;20.81;54.23;100517.53;4303346;33;20039;-82
2022/10/23 09:43:26;;;;;;;;;;;;;;;21.52;51.92;100516.38;4294963;33;20010;-82
2022/10/23 09:46:01;;;;;;;;;;;;;;;21.05;55.16;100518.03;4296488;33;19980;-81
2022/10/23 09:48:28;;;;;;;;;;;;;;;21.44;50.45;100515.63;4296657;33;20004;-81
2022/10/23 09:50:56;;;;;;;;;;;;;;;21.38;51.09;100511.37;4296500;33;20398;-82
2022/10/23 09:53:29;;;;;;;;;;;;;;;21.59;50.14;100512.72;4296632;33;20930;-83
2022/10/23 09:55:58;;;;;;;;;;;;;;;21.22;52.91;100512.47;4301971;33;19988;-83
2022/10/23 09:58:35;;;;;;;;;;;;;;;21.50;51.72;100512.91;4300106;33;19999;-82
2022/10/23 10:01:02;;;;;;;;;;;;;;;21.63;50.31;100509.13;4305488;33;20007;-81
2022/10/23 10:03:36;;;;;;;;;;;;;;;21.12;50.18;100511.75;4307134;33;19992;-81
2022/10/23 10:06:04;;;;;;;;;;;;;;;21.28;51.27;100515.91;4303290;33;19985;-82
2022/10/23 10:08:43;;;;;;;;;;;;;;;21.49;51.36;100504.13;4301292;33;20658;-82
2022/10/23 10:11:12;;;;;;;;;;;;;;;21.85;48.63;100504.31;4296424;33;20028;-82
2022/10/23 10:14:00;;;;;;;;;;;;;;;21.82;49.24;100507.91;4296185;33;19996;-82
2022/10/23 10:16:49;;;;;;;;;;;;;;;21.54;51.87;100498.78;4302360;33;19985;-82
2022/10/23 10:19:21;;;;;;;;;;;;;;;21.89;50.21;100505.13;4296489;33;19989;-82
2022/10/23 10:21:52;;;;;;;;;;;;;;;21.22;50.44;100507.19;4295758;33;20014;-82
2022/10/23 10:24:26;;;;;;;;;;;;;;;21.16;51.89;100512.59;4297611;33;19992;-82
2022/10/23 10:27:02;;;;;;;;;;;;;;;21.49;53.03;100500.63;4303035;33;19985;-83
2022/10/23 10:29:34;;;;;;;;;;;;;;;21.88;51.85;100493.72;4303493;33;19999;-82
2022/10/23 10:32:12;;;;;;;;;;;;;;;21.04;54.67;100495.22;4296641;33;20004;-82
2022/10/23 10:35:05;;;;;;;;;;;;;;;21.12;54.25;100495.97;4302354;33;20310;-82
2022/10/23 10:37:44;;;;;;;;;;;;;;;21.39;51.85;100488.53;4296212;33;20243;-82
2022/10/23 10:40:15;;;;;;;;;;;;;;;21.24;53.33;100490.50;4301597;33;19990;-82
2022/10/23 10:42:46;;;;;;;;;;;;;;;21.44;53.06;100482.28;4307599;33;19996;-82
2022/10/23 10:45:26;;;;;;;;;;;;;;;21.22;53.54;100483.50;4302845;33;19980;-82
2022/10/23 10:47:59;;;;;;;;;;;;;;;21.35;53.49;100478.03;4294648;33;20007;-82
2022/10/23 10:50:40;;;;;;;;;;;;;;;21.10;52.94;100471.44;4294690;33;19996;-82
2022/10/23 10:53:19;;;;;;;;;;;;;;;21.29;52.51;100464.97;4293796;33;19977;-82
2022/10/23 10:55:47;;;;;;;;;;;;;;;21.45;52.50;100462.09;4293101;33;20019;-82
2022/10/23 10:58:16;;;;;;;;;;;;;;;21.68;52.25;100459.88;4293614;33;20373;-82
2022/10/23 11:00:43;;;;;;;;;;;;;;;21.91;52.26;100450.63;4298312;33;20323;-81
2022/10/23 11:03:16;;;;;;;;;;;;;;;21.88;51.42;100445.41;4300498;33;19999;-81
2022/10/23 11:05:44;;;;;;;;;;;;;;;22.01;51.54;100447.75;4303361;33;20040;-81
2022/10/23 11:08:16;;;;;;;;;;;;;;;22.29;50.53;100441.91;4298887;33;20043;-81
2022/10/23 11:10:47;;;;;;;;;;;;;;;22.11;51.58;100437.88;4302189;33;20055;-81
2022/10/23 11:13:17;;;;;;;;;;;;;;;22.22;50.95;100435.91;4302952;33;20008;-83
2022/10/23 11:15:46;;;;;;;;;;;;;;;21.80;51.87;100438.53;4295850;33;20255;-82
2022/10/23 11:18:17;;;;;;;;;;;;;;;22.14;51.28;100437.81;4296398;33;20079;-83
2022/10/23 11:20:54;;;;;;;;;;;;;;;22.17;51.38;100437.78;4299554;33;20263;-82
2022/10/23 11:23:36;;;;;;;;;;;;;;;22.19;50.92;100435.97;4276275;33;796421;-82
2022/10/23 11:26:21;;;;;;;;;;;;;;;22.37;50.45;100433.84;4306875;33;19992;-82
2022/10/23 11:29:07;;;;;;;;;;;;;;;22.34;50.41;100433.91;4298233;33;19988;-82
2022/10/23 11:31:53;;;;;;;;;;;;;;;22.40;50.51;100433.75;4303046;33;19985;-83
2022/10/23 11:34:23;;;;;;;;;;;;;;;22.43;50.21;100433.69;4296799;33;20003;-83
2022/10/23 11:36:54;;;;;;;;;;;;;;;22.39;50.23;100437.31;4297608;33;19980;-83
2022/10/23 11:39:20;;;;;;;;;;;;;;;21.89;52.64;100441.88;4294995;33;19992;-82
2022/10/23 11:41:48;;;;;;;;;;;;;;;22.38;50.34;100435.56;4298839;33;19998;-83
2022/10/23 11:44:23;;;;;;;;;;;;;;;21.97;50.44;100439.94;4302249;33;20726;-85
2022/10/23 11:47:04;;;;;;;;;;;;;;;22.21;50.20;100439.47;4296292;33;20015;-82
2022/10/23 11:49:31;;;;;;;;;;;;;;;21.98;50.53;100431.13;4300416;33;20968;-83
2022/10/23 11:52:02;;;;;;;;;;;;;;;21.95;50.68;100431.19;4304004;33;19976;-83
2022/10/23 11:54:29;;;;;;;;;;;;;;;21.99;52.01;100423.22;4303297;33;20015;-84
2022/10/23 11:57:07;;;;;;;;;;;;;;;22.09;51.07;100415.97;4307620;33;20010;-84
2022/10/23 11:59:52;;;;;;;;;;;;;;;22.33;50.60;100421.62;4310294;33;19980;-84
2022/10/23 12:02:30;;;;;;;;;;;;;;;22.08;50.93;100411.59;4309893;33;19998;-85
2022/10/23 12:05:00;;;;;;;;;;;;;;;22.24;50.56;100402.47;4302928;33;20018;-83
2022/10/23 12:07:28;;;;;;;;;;;;;;;22.14;50.13;100400.88;4305863;33;20301;-84
2022/10/23 12:09:56;;;;;;;;;;;;;;;22.38;50.63;100398.66;4301297;33;19989;-85
2022/10/23 12:12:41;;;;;;;;;;;;;;;22.41;49.34;100398.56;4297445;33;19972;-84
2022/10/23 12:15:13;;;;;;;;;;;;;;;22.24;49.64;100398.97;4303676;33;19988;-84
2022/10/23 12:17:43;;;;;;;;;;;;;;;21.54;50.20;100393.41;4297180;33;20207;-84
2022/10/23 12:20:12;;;;;;;;;;;;;;;21.27;51.67;100390.38;4298704;33;19999;-84
2022/10/23 12:22:57;;;;;;;;;;;;;;;21.07;52.36;100392.53;4308572;33;20034;-83
2022/10/23 12:25:43;;;;;;;;;;;;;;;21.50;52.57;100384.69;4312744;33;19989;-84
2022/10/23 12:28:25;;;;;;;;;;;;;;;22.02;51.59;100382.72;4317565;33;19999;-83
2022/10/23 12:31:01;;;;;;;;;;;;;;;21.74;50.77;100380.69;4318994;33;20306;-82
2022/10/23 12:33:31;;;;;;;;;;;;;;;21.46;51.81;100374.25;4326370;33;19979;-84
2022/10/23 12:36:14;;;;;;;;;;;;;;;21.73;51.63;100376.31;4325589;33;20000;-84
2022/10/23 12:38:44;;;;;;;;;;;;;;;21.81;51.43;100377.00;4320992;33;19984;-82
2022/10/23 12:41:15;;;;;;;;;;;;;;;21.75;51.57;100360.47;4313245;33;19989;-82
2022/10/23 12:43:43;;;;;;;;;;;;;;;21.79;52.03;100363.03;4317628;33;20027;-85
2022/10/23 12:46:13;;;;;;;;;;;;;;;22.08;51.30;100358.87;4312223;33;20006;-85
2022/10/23 12:48:50;;;;;;;;;;;;;;;22.15;51.12;100360.47;4318505;33;20285;-83
2022/10/23 12:51:25;;;;;;;;;;;;;;;21.91;51.79;100355.72;4324143;33;19992;-82